• Join FlightAware (Why Join?)
  • Login
  • US Flag 
Gobble Gobble! 
07:10AM EST


 

Airport Tracker/Info


-or-


 

Live Flight TrackerFlight Track Log ✈ SAS501 ✈ 14-Jul-2013 ✈ EKCH / CPH - EGLL / LHR

Flight Track Log - Related Links

Times and Time Zones

All times are in EDT time to prevent confusion due to time zone crossing. See the SAS501 flight status page for this flight to view local times or setup timezone preferences in your user account.

Time Position Orientation Groundspeed Altitude Reporting Facility
EDT Latitude Longitude Course Direction KTS MPH feet Rate Location/Type
02:01AM 55.6170 12.6410 174° South 32 37  Level FlightAware
02:01AM 55.6160 12.6410 180° South 7 8 420 Level FlightAware
02:02AM 55.6110 12.6330 222° Southwest 110 127 600 Level FlightAware
02:02AM 55.5930 12.6050 221° Southwest 154 177 600 1,560 Climbing FlightAware
02:03AM 55.5780 12.5800 223° Southwest 161 185 1,600 1,620 Climbing FlightAware
02:03AM 55.5650 12.5590 222° Southwest 199 229 2,000 1,320 Climbing FlightAware
02:03AM 55.5560 12.5380 233° Southwest 217 250 2,400 1,740 Climbing FlightAware
02:03AM 55.5510 12.5220 241° Southwest 235 270 2,700 1,800 Climbing FlightAware
02:04AM 55.5330 12.4650 241° Southwest 285 328 3,600 2,880 Climbing FlightAware
02:04AM 55.5120 12.4030 239° Southwest 294 338 5,600 3,660 Climbing FlightAware
02:05AM 55.4940 12.3560 236° Southwest 300 345 7,000 3,600 Climbing FlightAware
02:05AM 55.4730 12.3030 235° Southwest 301 346 8,600 3,480 Climbing FlightAware
02:06AM 55.4530 12.2500 236° Southwest 310 357 9,900 3,000 Climbing FlightAware
02:06AM 55.4210 12.1600 238° Southwest 330 380 11,900 3,120 Climbing FlightAware
02:07AM 55.3790 12.0460 237° Southwest 333 383 14,600 2,880 Climbing FlightAware
02:08AM 55.3420 11.9440 237° Southwest 340 391 16,500 2,580 Climbing FlightAware
02:09AM 55.3020 11.8400 236° Southwest 345 397 18,500 2,400 Climbing FlightAware
02:09AM 55.2700 11.7530 237° Southwest 362 417 19,700 1,860 Climbing FlightAware
02:10AM 55.2290 11.6420 237° Southwest 381 438 21,000 1,740 Climbing FlightAware
02:11AM 55.1900 11.5370 237° Southwest 387 445 22,200 1,800 Climbing FlightAware
02:11AM 55.1430 11.4140 236° Southwest 399 459 23,600 1,920 Climbing FlightAware
02:12AM 55.1080 11.3230 236° Southwest 405 466 24,700 1,800 Climbing FlightAware
02:13AM 55.0650 11.2090 237° Southwest 412 474 25,900 1,500 Climbing FlightAware
02:13AM 55.0180 11.0850 237° Southwest 424 488 26,900 1,500 Climbing FlightAware
02:14AM 54.9760 10.9770 236° Southwest 429 494 28,000 1,620 Climbing FlightAware
02:14AM 54.9410 10.8860 236° Southwest 433 498 28,800 1,380 Climbing FlightAware
02:15AM 54.8820 10.7320 236° Southwest 442 509 30,000 1,200 Climbing FlightAware
02:16AM 54.8320 10.6050 236° Southwest 455 524 30,700 1,200 Climbing FlightAware
02:17AM 54.7840 10.4830 236° Southwest 459 528 31,700 1,620 Climbing FlightAware
02:17AM 54.7380 10.3620 237° Southwest 450 518 32,900 1,620 Climbing FlightAware
02:18AM 54.6980 10.2380 241° Southwest 444 511 33,900 1,380 Climbing FlightAware
02:19AM 54.6570 10.1140 240° Southwest 443 510 34,800 1,260 Climbing FlightAware
02:19AM 54.6140 9.9830 240° Southwest 443 510 35,700 780 Climbing FlightAware
02:20AM 54.5690 9.8470 240° Southwest 442 509 36,000 180 Climbing FlightAware
02:21AM 54.5290 9.7260 240° Southwest 443 510 36,000  Level FlightAware
02:22AM 54.4840 9.5890 241° Southwest 443 510 36,000  Level FlightAware
02:22AM 54.4510 9.4920 240° Southwest 444 511 36,000  Level FlightAware
02:23AM 54.4080 9.3640 240° Southwest 445 512 36,000  Level FlightAware
02:23AM 54.3620 9.2290 240° Southwest 446 513 36,000  Level FlightAware
02:24AM 54.3250 9.1200 240° Southwest 446 513 36,000  Level FlightAware
02:25AM 54.2790 8.9850 240° Southwest 447 514 36,000  Level FlightAware
02:25AM 54.2380 8.8660 240° Southwest 447 514 36,000  Level FlightAware
02:26AM 54.1940 8.7390 239° Southwest 448 516 36,000  Level FlightAware
02:27AM 54.1540 8.6250 239° Southwest 448 516 36,000  Level FlightAware
02:28AM 54.1070 8.4900 239° Southwest 449 517 36,000  Level FlightAware
02:28AM 54.0640 8.3680 239° Southwest 449 517 36,000  Level FlightAware
02:29AM 54.0240 8.2540 239° Southwest 449 517 36,000  Level FlightAware
02:29AM 53.9850 8.1440 239° Southwest 449 517 36,000  Level FlightAware
02:31AM 53.9230 7.9690 239° Southwest 449 517 36,000  Level FlightAware
02:31AM 53.8700 7.8240 238° Southwest 450 518 36,000  Level FlightAware
02:32AM 53.8230 7.6920 239° Southwest 451 519 36,000  Level FlightAware
02:33AM 53.7780 7.5690 238° Southwest 451 519 36,000  Level FlightAware
02:33AM 53.7340 7.4480 238° Southwest 452 520 36,000  Level FlightAware
02:34AM 53.6920 7.3330 238° Southwest 452 520 36,000  Level FlightAware
02:35AM 53.6460 7.2090 238° Southwest 453 521 36,000  Level FlightAware
02:35AM 53.6020 7.0900 238° Southwest 454 522 36,000  Level FlightAware
02:36AM 53.5620 6.9800 239° Southwest 454 522 36,000  Level FlightAware
02:37AM 53.5130 6.8510 237° Southwest 455 524 36,000  Level FlightAware
02:37AM 53.4680 6.7320 238° Southwest 456 525 36,000 -120 Level FlightAware
02:38AM 53.4259 6.6202 238° Southwest 1 1 35,900  Descending FlightAware UK
02:38AM 53.4240 6.6140 238° Southwest 455 524 36,000 120 Climbing FlightAware
02:39AM 53.3790 6.4950 238° Southwest 455 524 36,000 -120 Level FlightAware
02:39AM 53.3385 6.3887 238° Southwest 1 1 35,900  Descending FlightAware UK
02:39AM 53.3280 6.3620 238° Southwest 455 524 36,000 60 Climbing FlightAware
02:40AM 53.2800 6.2370 237° Southwest 456 525 36,000 -120 Level FlightAware
02:41AM 53.2363 6.1227 237° Southwest 438 504 35,900  Descending FlightAware UK
02:41AM 53.2330 6.1150 237° Southwest 456 525 36,000 120 Climbing FlightAware
02:42AM 53.1830 5.9840 238° Southwest 457 526 36,000  Level FlightAware
02:42AM 53.1480 5.8940 237° Southwest 456 525 36,000  Level FlightAware
02:43AM 53.0970 5.7620 237° Southwest 458 527 36,000  Level FlightAware
02:43AM 53.0500 5.6430 237° Southwest 458 527 36,000  Level FlightAware
02:44AM 53.0080 5.5360 237° Southwest 458 527 36,000  Level FlightAware
02:45AM 52.9570 5.4090 236° Southwest 459 528 36,000  Level FlightAware
02:45AM 52.9090 5.2880 237° Southwest 459 528 36,000  Level FlightAware
02:46AM 52.8624 5.1703 237° Southwest 436 502 36,000  Level FlightAware UK
02:46AM 52.8580 5.1600 237° Southwest 460 529 36,000  Level FlightAware
02:47AM 52.8134 5.0474 237° Southwest 436 502 36,000  Level FlightAware UK
02:47AM 52.8110 5.0420 237° Southwest 460 529 36,000  Level FlightAware
02:48AM 52.7620 4.9210 236° Southwest 460 529 36,000  Level FlightAware
02:48AM 52.7100 4.7910 237° Southwest 461 531 36,000  Level FlightAware
02:49AM 52.6719 4.6975 237° Southwest 436 502 36,000  Level FlightAware UK
02:49AM 52.6620 4.6750 237° Southwest 461 531 36,000  Level FlightAware
02:50AM 52.6100 4.5470 236° Southwest 463 533 36,000  Level FlightAware
02:50AM 52.5620 4.4320 236° Southwest 463 533 36,000  Level FlightAware
02:51AM 52.5100 4.3040 236° Southwest 463 533 36,000  Level FlightAware
02:52AM 52.4620 4.1880 236° Southwest 464 534 36,000  Level FlightAware
02:52AM 52.4100 4.0650 235° Southwest 464 534 36,000  Level FlightAware
02:53AM 52.3600 3.9460 236° Southwest 464 534 36,000  Level FlightAware
02:54AM 52.3178 3.8456 236° Southwest 436 502 36,000  Level FlightAware UK
02:54AM 52.3070 3.8200 236° Southwest 465 535 36,000  Level FlightAware
02:55AM 52.2560 3.6980 236° Southwest 465 535 36,000 -120 Level FlightAware
02:55AM 52.2079 3.5858 236° Southwest 436 502 35,900  Descending FlightAware UK
02:55AM 52.2070 3.5830 236° Southwest 467 537 36,000 120 Climbing FlightAware
02:56AM 52.1650 3.4780 237° Southwest 464 534 36,000  Level FlightAware
02:56AM 52.1230 3.3610 240° Southwest 464 534 36,000  Level FlightAware
02:57AM 52.0711 3.2166 240° Southwest 465 535 36,000  Level FlightAware ADS-B
02:58AM 52.0370 3.1220 240° Southwest 465 535 36,000  Level FlightAware
02:58AM 51.9930 3.0020 239° Southwest 465 535 36,000  Level FlightAware
02:59AM 51.9504 2.8837 239° Southwest 436 502 36,000  Level FlightAware UK
02:59AM 51.9460 2.8730 239° Southwest 466 536 36,000 -1,320 Level FlightAware
03:00AM 51.8980 2.7420 239° Southwest 465 535 34,900 -2,040 Descending FlightAware
03:01AM 51.8740 2.6110 254° West 455 524 33,200 -2,460 Descending FlightAware
03:01AM 51.8570 2.4670 259° West 450 518 31,600 -1,980 Descending FlightAware
03:02AM 51.8410 2.3380 259° West 434 499 30,500 -1,800 Descending FlightAware
03:03AM 51.8240 2.2120 259° West 424 488 29,200 -2,160 Descending FlightAware
03:03AM 51.8228 2.1991 259° West 422 486 29,000 -2,220 Descending FlightAware UK
03:03AM 51.8164 2.1470 259° West 421 484 28,500 -1,980 Descending FlightAware ADS-B
03:04AM 51.8019 2.0327 258° West 419 482 27,200 -1,920 Descending FlightAware ADS-B
03:04AM 51.7901 1.9405 258° West 408 470 26,300 -1,800 Descending FlightAware ADS-B
03:05AM 51.7760 1.8325 258° West 399 459 25,200 -1,620 Descending FlightAware ADS-B
03:05AM 51.7648 1.7455 258° West 390 449 24,500 -1,500 Descending FlightAware ADS-B
03:06AM 51.7495 1.6290 258° West 383 441 23,400 -1,980 Descending FlightAware ADS-B
03:06AM 51.7430 1.5436 263° West 383 441 22,100 -2,220 Descending FlightAware ADS-B
03:07AM 51.7352 1.4194 264° West 374 430 20,600 -2,040 Descending FlightAware ADS-B
03:08AM 51.7284 1.3159 264° West 366 421 19,300 -2,100 Descending FlightAware ADS-B
03:08AM 51.7230 1.2324 264° West 362 417 18,200 -1,920 Descending FlightAware ADS-B
03:09AM 51.7166 1.1380 264° West 350 403 17,200 -1,740 Descending FlightAware ADS-B
03:09AM 51.7114 1.0612 264° West 344 396 16,300 -2,040 Descending FlightAware ADS-B
03:10AM 51.7062 0.9845 264° West 343 395 15,200 -1,620 Descending FlightAware ADS-B
03:11AM 51.7005 0.9018 264° West 327 376 14,600 -660 Descending FlightAware ADS-B
03:11AM 51.6954 0.8282 264° West 301 346 14,500 -240 Descending FlightAware ADS-B
03:12AM 51.6905 0.7588 264° West 273 314 14,400 -420 Descending FlightAware ADS-B
03:12AM 51.6863 0.6987 264° West 266 306 14,100 -720 Descending FlightAware ADS-B
03:13AM 51.6820 0.6380 263° West 263 303 13,700 -780 Descending FlightAware ADS-B
03:13AM 51.6779 0.5800 264° West 259 298 13,300 -780 Descending FlightAware ADS-B
03:14AM 51.6744 0.5330 263° West 254 292 13,000 -780 Descending FlightAware ADS-B
03:14AM 51.6702 0.4760 263° West 256 295 12,600 -840 Descending FlightAware ADS-B
03:15AM 51.6661 0.4193 263° West 252 290 12,200 -780 Descending FlightAware ADS-B
03:15AM 51.6617 0.3601 263° West 251 289 11,800 -780 Descending FlightAware ADS-B
03:16AM 51.6577 0.3044 263° West 250 288 11,400 -840 Descending FlightAware ADS-B
03:16AM 51.6535 0.2483 263° West 247 284 11,000 -960 Descending FlightAware ADS-B
03:16AM 51.6513 0.2208 263° West 246 283 10,700 -960 Descending FlightAware ADS-B
03:17AM 51.6470 0.1655 263° West 242 278 10,300 -660 Descending FlightAware ADS-B
03:17AM 51.6447 0.1361 263° West 240 276 10,200 -300 Descending FlightAware ADS-B
03:17AM 51.6430 0.1251 256° West 243 280 10,200 -600 Level FlightAware ADS-B
03:17AM 51.6414 0.1186 248° West 247 284 10,100 -600 Descending FlightAware ADS-B
03:17AM 51.6378 0.1090 239° Southwest 249 287 10,100  Level FlightAware ADS-B
03:18AM 51.6322 0.0999 225° Southwest 253 291 10,100 -480 Level FlightAware ADS-B
03:18AM 51.6252 0.0930 211° Southwest 257 296 10,000 -420 Descending FlightAware ADS-B
03:18AM 51.6148 0.0883 196° South 261 300 10,000  Level FlightAware ADS-B
03:18AM 51.6043 0.0886 179° South 263 303 10,000  Level FlightAware ADS-B
03:18AM 51.6006 0.0898 168° South 262 302 10,000  Level FlightAware ADS-B
03:18AM 51.5969 0.0918 161° South 262 302 10,000  Level FlightAware ADS-B
03:18AM 51.5887 0.0990 151° Southeast 262 302 10,000  Level FlightAware ADS-B
03:18AM 51.5828 0.1075 138° Southeast 263 303 10,000  Level FlightAware ADS-B
03:18AM 51.5785 0.1170 126° Southeast 264 304 10,000  Level FlightAware ADS-B
03:19AM 51.5758 0.1260 116° Southeast 264 304 10,000  Level FlightAware ADS-B
03:19AM 51.5742 0.1344 107° East 262 302 10,000  Level FlightAware ADS-B
03:19AM 51.5734 0.1450 97° East 260 299 10,000  Level FlightAware ADS-B
03:19AM 51.5738 0.1558 87° East 258 297 10,000  Level FlightAware ADS-B
03:19AM 51.5747 0.1620 77° East 257 296 10,000  Level FlightAware ADS-B
03:19AM 51.5783 0.1755 67° East 251 289 10,000  Level FlightAware ADS-B
03:19AM 51.5809 0.1817 56° Northeast 250 288 10,000 -600 Level FlightAware ADS-B
03:19AM 51.5858 0.1897 46° Northeast 247 284 9,900 -1,020 Descending FlightAware ADS-B
03:19AM 51.5917 0.1959 33° Northeast 241 277 9,800 -1,020 Descending FlightAware ADS-B
03:19AM 51.5970 0.1992 21° North 235 270 9,700 -1,140 Descending FlightAware ADS-B
03:19AM 51.6021 0.2006 10° North 231 266 9,600 -1,200 Descending FlightAware ADS-B
03:19AM 51.6075 0.2004 359° North 228 262 9,500 -960 Descending FlightAware ADS-B
03:20AM 51.6153 0.1968 344° North 224 258 9,400 -780 Descending FlightAware ADS-B
03:20AM 51.6221 0.1897 327° Northwest 222 255 9,300 -540 Descending FlightAware ADS-B
03:20AM 51.6253 0.1854 320° Northwest 222 255 9,300 -720 Level FlightAware ADS-B
03:20AM 51.6352 0.1704 317° Northwest 224 258 9,100 -960 Descending FlightAware ADS-B
03:20AM 51.6418 0.1532 302° West 223 257 8,900 -1,080 Descending FlightAware ADS-B
03:20AM 51.6428 0.1459 282° West 224 258 8,800 -1,500 Descending FlightAware ADS-B
03:20AM 51.6432 0.1397 276° West 224 258 8,700 -780 Descending FlightAware ADS-B
03:20AM 51.6434 0.1311 272° West 224 258 8,700 -900 Level FlightAware ADS-B
03:21AM 51.6437 0.1051 271° West 225 259 8,400 -960 Descending FlightAware ADS-B
03:21AM 51.6438 0.0788 270° West 225 259 8,200 -780 Descending FlightAware ADS-B
03:21AM 51.6440 0.0533 271° West 223 257 8,000 -420 Descending FlightAware ADS-B
03:21AM 51.6442 0.0282 271° West 225 259 8,000  Level FlightAware ADS-B
03:22AM 51.6443 0.0023 270° West 226 260 8,000  Level FlightAware ADS-B
03:22AM 51.6445 -0.0301 271° West 225 259 8,000  Level FlightAware ADS-B
03:22AM 51.6446 -0.0558 270° West 224 258 8,000  Level FlightAware ADS-B
03:23AM 51.6447 -0.0818 270° West 224 258 8,000  Level FlightAware ADS-B
03:23AM 51.6446 -0.1073 270° West 223 257 8,000  Level FlightAware ADS-B
03:23AM 51.6445 -0.1328 270° West 223 257 8,000  Level FlightAware ADS-B
03:23AM 51.6445 -0.1575 270° West 223 257 8,000  Level FlightAware ADS-B
03:24AM 51.6444 -0.1835 270° West 223 257 8,000 -240 Level FlightAware ADS-B
03:24AM 51.6443 -0.2093 270° West 225 259 7,900 -600 Descending FlightAware ADS-B
03:24AM 51.6443 -0.2341 270° West 221 254 7,700 -660 Descending FlightAware ADS-B
03:24AM 51.6432 -0.2573 266° West 223 257 7,600 -600 Descending FlightAware ADS-B
03:24AM 51.6398 -0.2694 246° West 228 262 7,500 -840 Descending FlightAware ADS-B
03:25AM 51.6350 -0.2787 230° Southwest 234 269 7,400 -960 Descending FlightAware ADS-B
03:25AM 51.6294 -0.2851 215° Southwest 238 274 7,300 -1,020 Descending FlightAware ADS-B
03:25AM 51.6236 -0.2892 204° Southwest 243 280 7,200 -720 Descending FlightAware ADS-B
03:25AM 51.6204 -0.2907 196° South 244 281 7,200 -960 Level FlightAware ADS-B
03:25AM 51.6035 -0.2966 192° South 242 278 6,900 -960 Descending FlightAware ADS-B
03:25AM 51.5930 -0.2995 190° South 241 277 6,800 -900 Descending FlightAware ADS-B
03:25AM 51.5874 -0.2994 180° South 244 281 6,700 -1,380 Descending FlightAware ADS-B
03:25AM 51.5831 -0.2984 172° South 245 282 6,600 -1,380 Descending FlightAware ADS-B
03:26AM 51.5774 -0.2953 161° South 246 283 6,500 -720 Descending FlightAware ADS-B
03:26AM 51.5740 -0.2925 153° Southeast 248 285 6,500 -720 Level FlightAware ADS-B
03:26AM 51.5690 -0.2867 144° Southeast 250 288 6,400 -1,020 Descending FlightAware ADS-B
03:26AM 51.5636 -0.2771 132° Southeast 251 289 6,300 -900 Descending FlightAware ADS-B
03:26AM 51.5599 -0.2660 118° Southeast 250 288 6,200 -1,200 Descending FlightAware ADS-B
03:26AM 51.5588 -0.2609 109° East 249 287 6,100 -1,020 Descending FlightAware ADS-B
03:26AM 51.5580 -0.2546 102° East 248 285 6,100 -900 Level FlightAware ADS-B
03:26AM 51.5576 -0.2482 96° East 246 283 6,000 -1,200 Descending FlightAware ADS-B
03:26AM 51.5573 -0.2359 92° East 244 281 5,900 -900 Descending FlightAware ADS-B
03:26AM 51.5574 -0.2096 90° East 241 277 5,700 -840 Descending FlightAware ADS-B
03:27AM 51.5577 -0.1830 89° East 233 268 5,500 -660 Descending FlightAware ADS-B
03:27AM 51.5578 -0.1599 90° East 227 261 5,400 -420 Descending FlightAware ADS-B
03:27AM 51.5580 -0.1350 89° East 220 253 5,300 -480 Descending FlightAware ADS-B
03:27AM 51.5578 -0.1172 91° East 216 249 5,200 -360 Descending FlightAware ADS-B
03:27AM 51.5564 -0.1076 103° East 216 249 5,200 -540 Level FlightAware ADS-B
03:28AM 51.5541 -0.1001 116° Southeast 213 245 5,100 -540 Descending FlightAware ADS-B
03:28AM 51.5503 -0.0924 129° Southeast 212 244 5,100 -600 Level FlightAware ADS-B
03:28AM 51.5469 -0.0881 142° Southeast 211 243 5,000 -780 Descending FlightAware ADS-B
03:28AM 51.5441 -0.0856 151° Southeast 209 241 5,000 -780 Level FlightAware ADS-B
03:28AM 51.5405 -0.0835 160° South 207 238 4,900 -900 Descending FlightAware ADS-B
03:28AM 51.5373 -0.0822 167° South 205 236 4,900 -780 Level FlightAware ADS-B
03:28AM 51.5325 -0.0808 170° South 203 234 4,800 -720 Descending FlightAware ADS-B
03:28AM 51.5289 -0.0801 173° South 202 232 4,800 -960 Level FlightAware ADS-B
03:28AM 51.5150 -0.0779 174° South 201 231 4,500 -960 Descending FlightAware ADS-B
03:28AM 51.5059 -0.0768 176° South 199 229 4,400 -840 Descending FlightAware ADS-B
03:29AM 51.5019 -0.0774 185° South 198 228 4,300 -1,500 Descending FlightAware ADS-B
03:29AM 51.4991 -0.0786 195° South 196 226 4,200 -1,020 Descending FlightAware ADS-B
03:29AM 51.4967 -0.0802 203° Southwest 194 223 4,200 -900 Level FlightAware ADS-B
03:29AM 51.4936 -0.0832 211° Southwest 192 221 4,100 -1,740 Descending FlightAware ADS-B
03:29AM 51.4913 -0.0865 221° Southwest 191 220 4,000 -1,500 Descending FlightAware ADS-B
03:29AM 51.4883 -0.0919 228° Southwest 189 217 3,900 -600 Descending FlightAware ADS-B
03:29AM 51.4855 -0.0975 231° Southwest 189 217 3,900 -840 Level FlightAware ADS-B
03:29AM 51.4773 -0.1158 234° Southwest 186 214 3,600 -900 Descending FlightAware ADS-B
03:29AM 51.4689 -0.1356 236° Southwest 184 212 3,400 -900 Descending FlightAware ADS-B
03:30AM 51.4676 -0.1405 247° West 183 211 3,300 -1,740 Descending FlightAware ADS-B
03:30AM 51.4670 -0.1443 256° West 181 208 3,200 -780 Descending FlightAware ADS-B
03:30AM 51.4664 -0.1505 261° West 179 206 3,200 -1,020 Level FlightAware ADS-B
03:30AM 51.4655 -0.1681 265° West 177 204 2,900 -1,140 Descending FlightAware ADS-B
03:30AM 51.4654 -0.1796 269° West 176 203 2,800 -540 Descending FlightAware ADS-B
03:30AM 51.4653 -0.1986 270° West 169 194 2,700 -600 Descending FlightAware ADS-B
03:31AM 51.4654 -0.2173 270° West 166 191 2,500 -1,020 Descending FlightAware ADS-B
03:31AM 51.4654 -0.2365 270° West 166 191 2,200 -1,200 Descending FlightAware ADS-B
03:31AM 51.4654 -0.2488 270° West 167 192 2,000 -960 Descending FlightAware ADS-B
03:31AM 51.4654 -0.2683 270° West 167 192 1,800 -900 Descending FlightAware ADS-B
03:32AM 51.4653 -0.3248 270° West 164 189 1,100 -840 Descending FlightAware UK
03:32AM 51.4650 -0.3340 270° West 161 185 1,000 -780 Descending FlightAware
03:33AM 51.4650 -0.3772 270° West 138 159 500 -780 Descending FlightAware UK
03:33AM 51.4650 -0.3790 270° West 135 155 500 -540 Level FlightAware
03:34AM 51.4650 -0.4110 270° West 132 152 100 -600 Descending FlightAware
03:34AM 51.4650 -0.4410 270° West 132 152 -180 Descending FlightAware
03:37AM 51.4775 -0.4614 315° West  Level Estimated
03:38AM 51.4775 -0.4614 90° East  Level Estimated
03:39AM 51.4775 -0.4614 90° East  Level Estimated
03:40AM 51.4775 -0.4614 90° East  Level Estimated